AirNav   Free Bose QuietComfort 20
 
 409 users online  

19KY Conrads Airport
Dry Ridge, Kentucky, USA

GOING TO DRY RIDGE?


FAA INFORMATION EFFECTIVE 05 DECEMBER 2019

Location

FAA Identifier: 19KY
Lat/Long: 38-42-23.2420N 084-35-59.7930W
38-42.387367N 084-35.996550W
38.7064561,-84.5999425
(estimated)
Elevation: 940 ft. / 287 m (estimated)
Variation: 03W (1985)
From city: 2 miles N of DRY RIDGE, KY
Time zone: UTC -5 (UTC -4 during Daylight Saving Time)
Zip code: 41035

Airport Operations

Airport use: Private use. Permission required prior to landing
Activation date: 08/1988
Control tower: no
ARTCC: INDIANAPOLIS CENTER
FSS: LOUISVILLE FLIGHT SERVICE STATION
Attendance: UNATNDD
Wind indicator: yes
Segmented circle: no

Airport Communications

WX AWOS-3 at K62 (10 nm E): 123.825 (859-654-1345)

Nearby radio navigation aids

VOR radial/distance  VOR name  Freq  Var
FLMr288/14.0FALMOUTH VOR/DME117.0004W
CVGr169/19.2CINCINNATI VORTAC117.3004W
FFTr028/(34.6)FRANKFORT VOR109.4003W

 
NDB name  Hdg/Dist  Freq  Var  ID
SPORTYS223/28.624504WPWF .--. .-- ..-.
CINCINNATI208/29.733504WLUK .-.. ..- -.-

Airport Services

Runway Information

Runway 18/36

Dimensions: 2200 x 60 ft. / 671 x 18 m
Surface: turf
RUNWAY 18  RUNWAY 36
Traffic pattern: leftleft

Airport Ownership and Management from official FAA records

Ownership: Privately-owned
Owner: MICHAEL CAUDILL
660 BANNISTER PIKE
DRY RIDGE, KY 41035
Phone 859-428-4868
Manager: MICHAEL CAUDILL
660 BANNISTER PIKE
DRY RIDGE, KY 41035
Phone 859-428-4868

Additional Remarks

TWR 1/2 NM S OF ARPT.
FOR CD CTC CINCINNATI APCH AT 859-372-6440

Instrument Procedures

There are no published instrument procedures at 19KY.

Some nearby airports with instrument procedures:

K62 - Gene Snyder Airport (10 nm E)
KCVG - Cincinnati/Northern Kentucky International Airport (21 nm N)
0I8 - Cynthiana-Harrison County Airport (25 nm SE)
KLUK - Cincinnati Municipal Airport-Lunken Field (25 nm N)
I69 - Clermont County Airport (29 nm NE)
 
Loc | Ops | Rwys | IFR | FBO | Links
Com | Nav | Svcs | Stats | Notes
Area around 19KY (Conrads Airport)
 
Road maps at: MapQuest Bing Google
 
Aerial photo
No photo
 
Sectional chart

 
Airport distance calculator
Flying to Conrads Airport? Find the distance to fly.

From to 19KY

Sunrise and sunset
Times for 16-Dec-2019
 Local
(UTC-5)
 Zulu
(UTC)
Morning civil twilight07:2112:21
Sunrise07:5112:51
Sunset17:1722:17
Evening civil twilight17:4722:47

Current date and time
Zulu (UTC)  16-Dec-2019 06:08:06
Local (UTC-5)  16-Dec-2019 01:08:06
 
METAR
KCVG 
21nm N 
160552Z 08008KT 3SM -RA BR BKN004 OVC036 01/M01 A3000 RMK AO2 DZE10RAB10 SLP165 4/002 931013 P0004 60024 T00061006 10006 20000 56019
KLUK 
25nm N 
160553Z AUTO 02005KT 3SM -RA BR FEW008 OVC041 01/00 A3005 RMK AO2 RAB02SNE02 SLP178 P0006 60019 T00060000 10006 20000 56023
KI69 
29nm NE 
160555Z AUTO 09004KT 4SM -SN OVC004 00/00 A3004 RMK AO2 P0003 60013 T00020000 10002 20000 400291003
K27K 
29nm S 
160555Z AUTO 05010G15KT 4SM OVC006 01/00 A2998 RMK AO1
KI67 
34nm N 
160555Z AUTO 05003KT 2SM OVC005 00/00 A3003 RMK AO1 P0005
KFFT 
34nm SW 
160553Z AUTO 05006KT 5SM -RA BR OVC007 02/01 A2997 RMK AO2 CIG 004V010 SLP153 P0011 60019 T00220011 10022 20017 55015
KHAO 
40nm N 
160602Z AUTO 07003KT 2SM -SN BR OVC008 00/M01 A3004 RMK AO2 P0000 T00001006
KLEX 
40nm S 
160554Z 04008KT 8SM -RA OVC006 03/01 A2996 RMK AO2 SLP149 P0005 60027 T00280006 10033 20017 56021
KIMS 
41nm W 
160555Z AUTO 06009KT 4SM SCT006 OVC028 00/00 A3001 RMK AO1
KFGX 
41nm E 
160555Z AUTO 07009KT 3SM DZ OVC005 01/01 A3002 RMK AO2 T00050005 10005 21001 400371005
TAF
KCVG 
21nm N 
160540Z 1606/1712 07008KT 5SM BR OVC004 TEMPO 1606/1608 2SM -RA BR SCT004 OVC030 FM161000 06007KT P6SM OVC006 FM161900 05008KT P6SM VCSH OVC008 FM162100 04010KT 5SM -RA OVC008 TEMPO 1623/1703 03015G22KT 2SM -RA OVC015 FM170900 36012KT 3SM -SNRA OVC007
KLUK 
25nm N 
160540Z 1606/1706 07009KT 5SM -RA BR OVC008 TEMPO 1606/1608 2SM -RA BR SCT008 OVC040 FM161000 06007KT P6SM OVC009 FM161900 05008KT P6SM VCSH OVC007 FM162100 04010KT 5SM -RA OVC009
NOTAMs
Click for the latest NOTAMs
NOTAMs are issued by the DoD/FAA and will open in a separate window not controlled by AirNav.

 

 
 

Would you like to see your business listed on this page?

 If your business provides an interesting product or service to pilots, flight crews, aircraft, or users of the Conrads Airport, you should consider listing it here.  To start the listing process, click on the button below
 
Add a business
 

Other Pages about Conrads Airport

Update a link
 
Copyright © AirNav, LLC. All rights reserved. Privacy Policy  Contact